Time;durP1;ratioP1;P1;durP2;ratioP2;P2;SDS_P1;SDS_P2;PMS_P1;PMS_P2;Temp;Humidity;BMP_temperature;BMP_pressure;BME280_temperature;BME280_humidity;BME280_pressure;Samples;Min_cycle;Max_cycle;Signal;HPM_P1;HPM_P2
2023/05/05 00:00:46;;;;;;;10.53;3.70;;;;;;;;;;5072156;28;20537;-62
2023/05/05 00:03:12;;;;;;;7.60;3.30;;;;;;;;;;5073889;28;20037;-62
2023/05/05 00:05:37;;;;;;;8.87;3.70;;;;;;;;;;5073963;28;20021;-63
2023/05/05 00:08:02;;;;;;;7.67;3.60;;;;;;;;;;5072893;28;20028;-63
2023/05/05 00:10:29;;;;;;;6.67;3.40;;;;;;;;;;5073228;28;20480;-63
2023/05/05 00:12:54;;;;;;;6.37;3.20;;;;;;;;;;5073065;28;20127;-63
2023/05/05 00:15:20;;;;;;;6.93;2.83;;;;;;;;;;5069758;28;20029;-63
2023/05/05 00:17:45;;;;;;;12.27;3.87;;;;;;;;;;5073624;28;20358;-63
2023/05/05 00:20:11;;;;;;;6.83;3.40;;;;;;;;;;5073085;28;20520;-63
2023/05/05 00:22:36;;;;;;;11.60;4.17;;;;;;;;;;5073143;28;20027;-62
2023/05/05 00:25:01;;;;;;;6.77;3.40;;;;;;;;;;5070858;28;20065;-63
2023/05/05 00:27:26;;;;;;;9.50;4.50;;;;;;;;;;5073080;28;20443;-63
2023/05/05 00:29:52;;;;;;;6.83;3.50;;;;;;;;;;5070846;28;20025;-63
2023/05/05 00:32:17;;;;;;;7.20;3.50;;;;;;;;;;5073131;28;20035;-63
2023/05/05 00:34:42;;;;;;;9.40;4.10;;;;;;;;;;5071852;28;20400;-63
2023/05/05 00:37:08;;;;;;;12.13;4.13;;;;;;;;;;5073492;28;20400;-63
2023/05/05 00:39:33;;;;;;;8.93;3.50;;;;;;;;;;5070239;28;20031;-63
2023/05/05 00:41:59;;;;;;;7.43;3.47;;;;;;;;;;5072834;28;20062;-63
2023/05/05 00:44:50;;;;;;;7.83;3.47;;;;;;;;;;5072122;28;20012;-62
2023/05/05 00:47:16;;;;;;;8.88;4.00;;;;;;;;;;5065551;28;20028;-63
2023/05/05 00:49:41;;;;;;;8.10;3.67;;;;;;;;;;5071118;28;20024;-62
2023/05/05 00:52:07;;;;;;;5.93;3.40;;;;;;;;;;5072804;28;20082;-63
2023/05/05 00:54:35;;;;;;;6.73;3.53;;;;;;;;;;5072945;28;20043;-63
2023/05/05 00:57:01;;;;;;;7.33;3.57;;;;;;;;;;5073917;28;20025;-63
2023/05/05 00:59:31;;;;;;;8.23;3.80;;;;;;;;;;5072260;28;20438;-63
2023/05/05 01:01:57;;;;;;;12.17;3.90;;;;;;;;;;5080540;28;20467;-63
2023/05/05 01:04:22;;;;;;;9.23;3.53;;;;;;;;;;5071594;28;20075;-65
2023/05/05 01:06:53;;;;;;;7.73;3.57;;;;;;;;;;5071586;28;20086;-63
2023/05/05 01:09:50;;;;;;;8.80;4.40;;;;;;;;;;5072925;28;20036;-63
2023/05/05 01:12:44;;;;;;;6.03;3.13;;;;;;;;;;5009313;28;20044;-63
2023/05/05 01:15:10;;;;;;;9.80;4.07;;;;;;;;;;5044946;28;20040;-63
2023/05/05 01:17:38;;;;;;;7.83;3.90;;;;;;;;;;5052938;28;20126;-63
2023/05/05 01:20:20;;;;;;;11.40;3.80;;;;;;;;;;5058151;28;20037;-63
2023/05/05 01:22:49;;;;;;;9.57;4.03;;;;;;;;;;5051931;28;20021;-62
2023/05/05 01:25:38;;;;;;;6.10;3.27;;;;;;;;;;5052548;28;20078;-63
2023/05/05 01:28:11;;;;;;;8.03;3.77;;;;;;;;;;5038095;28;20451;-63
2023/05/05 01:30:44;;;;;;;10.27;3.77;;;;;;;;;;5049397;28;20514;-63
2023/05/05 01:33:12;;;;;;;8.47;4.07;;;;;;;;;;5052177;28;20056;-63
2023/05/05 01:35:42;;;;;;;9.20;4.10;;;;;;;;;;5052681;28;20035;-62
2023/05/05 01:38:13;;;;;;;6.93;3.83;;;;;;;;;;5050675;28;20028;-62
2023/05/05 01:40:50;;;;;;;10.52;4.30;;;;;;;;;;5051719;28;20040;-63
2023/05/05 01:43:17;;;;;;;7.27;3.60;;;;;;;;;;5051456;28;20027;-63
2023/05/05 01:45:44;;;;;;;7.07;3.37;;;;;;;;;;5052326;28;20099;-62
2023/05/05 01:48:11;;;;;;;7.03;3.57;;;;;;;;;;5051615;28;20025;-63
2023/05/05 01:50:38;;;;;;;6.10;3.10;;;;;;;;;;5049342;28;20063;-63
2023/05/05 01:53:03;;;;;;;9.63;3.90;;;;;;;;;;5050366;28;20423;-63
2023/05/05 01:55:29;;;;;;;8.37;3.77;;;;;;;;;;5050742;28;20021;-63
2023/05/05 01:57:57;;;;;;;7.37;3.60;;;;;;;;;;5048559;28;20059;-63
2023/05/05 02:00:24;;;;;;;5.30;3.20;;;;;;;;;;5050467;28;20025;-63
2023/05/05 02:02:49;;;;;;;7.33;3.53;;;;;;;;;;5051113;28;20016;-63
2023/05/05 02:05:15;;;;;;;9.60;4.00;;;;;;;;;;5052436;28;20096;-62
2023/05/05 02:07:40;;;;;;;6.93;3.37;;;;;;;;;;5052410;28;20025;-62
2023/05/05 02:10:06;;;;;;;5.83;2.83;;;;;;;;;;5050794;28;20045;-63
2023/05/05 02:12:32;;;;;;;9.43;3.60;;;;;;;;;;5065172;28;20089;-63
2023/05/05 02:14:58;;;;;;;10.10;3.60;;;;;;;;;;5070379;28;20039;-63
2023/05/05 02:17:25;;;;;;;7.10;3.90;;;;;;;;;;5072292;28;20032;-62
2023/05/05 02:19:51;;;;;;;7.87;4.00;;;;;;;;;;5067993;28;20025;-62
2023/05/05 02:22:16;;;;;;;8.13;3.77;;;;;;;;;;5071798;28;20032;-63
2023/05/05 02:24:42;;;;;;;8.33;4.33;;;;;;;;;;5069864;28;20035;-63
2023/05/05 02:27:09;;;;;;;8.10;3.90;;;;;;;;;;5071537;28;20032;-63
2023/05/05 02:29:38;;;;;;;7.27;3.80;;;;;;;;;;5070240;28;20031;-62
2023/05/05 02:32:08;;;;;;;14.27;3.77;;;;;;;;;;5071235;28;20028;-67
2023/05/05 02:34:35;;;;;;;9.60;3.93;;;;;;;;;;5070570;28;20528;-63
2023/05/05 02:37:03;;;;;;;7.13;3.70;;;;;;;;;;5072013;28;20020;-62
2023/05/05 02:39:37;;;;;;;6.37;3.70;;;;;;;;;;5072036;28;20083;-62
2023/05/05 02:42:03;;;;;;;8.33;3.37;;;;;;;;;;5070785;28;20091;-63
2023/05/05 02:44:30;;;;;;;7.77;3.53;;;;;;;;;;5070485;28;20017;-62
2023/05/05 02:46:56;;;;;;;7.00;3.47;;;;;;;;;;5069663;28;20468;-62
2023/05/05 02:49:22;;;;;;;7.37;3.87;;;;;;;;;;5068450;28;20055;-63
2023/05/05 02:51:47;;;;;;;8.83;4.10;;;;;;;;;;5068952;28;20429;-63
2023/05/05 02:54:13;;;;;;;6.70;3.33;;;;;;;;;;5072185;28;20091;-63
2023/05/05 02:56:39;;;;;;;14.17;4.50;;;;;;;;;;5073624;28;20047;-63
2023/05/05 02:59:28;;;;;;;6.27;3.40;;;;;;;;;;5072428;28;20028;-63
2023/05/05 03:01:57;;;;;;;6.63;3.20;;;;;;;;;;5062731;28;20472;-62
2023/05/05 03:04:27;;;;;;;8.43;4.00;;;;;;;;;;5074172;28;20096;-63
2023/05/05 03:06:56;;;;;;;7.30;3.77;;;;;;;;;;5073851;28;20013;-63
2023/05/05 03:09:44;;;;;;;7.07;3.93;;;;;;;;;;5074739;28;20103;-63
2023/05/05 03:12:12;;;;;;;7.70;3.57;;;;;;;;;;5072376;28;20047;-62
2023/05/05 03:14:42;;;;;;;7.17;3.10;;;;;;;;;;5072251;28;20052;-63
2023/05/05 03:17:10;;;;;;;10.83;3.33;;;;;;;;;;5073108;28;20024;-62
2023/05/05 03:19:36;;;;;;;8.10;3.87;;;;;;;;;;5075059;28;20033;-63
2023/05/05 03:22:02;;;;;;;8.03;3.13;;;;;;;;;;5073570;28;20020;-62
2023/05/05 03:24:27;;;;;;;9.23;3.73;;;;;;;;;;5074462;28;20027;-63
2023/05/05 03:26:53;;;;;;;8.10;3.80;;;;;;;;;;5070430;28;20017;-63
2023/05/05 03:29:18;;;;;;;7.27;3.90;;;;;;;;;;5073657;28;20433;-63
2023/05/05 03:31:43;;;;;;;6.67;3.60;;;;;;;;;;5072183;28;20471;-62
2023/05/05 03:34:09;;;;;;;6.43;3.60;;;;;;;;;;5073686;28;20052;-63
2023/05/05 03:36:34;;;;;;;10.17;3.63;;;;;;;;;;5072926;28;20059;-63
2023/05/05 03:39:00;;;;;;;5.40;2.80;;;;;;;;;;5072318;28;20531;-63
2023/05/05 03:41:26;;;;;;;7.17;3.67;;;;;;;;;;5073412;28;20041;-63
2023/05/05 03:43:51;;;;;;;8.07;4.00;;;;;;;;;;5072385;28;20016;-62
2023/05/05 03:46:16;;;;;;;9.87;4.37;;;;;;;;;;5071746;28;20495;-63
2023/05/05 03:48:42;;;;;;;8.97;4.07;;;;;;;;;;5071849;28;20044;-63
2023/05/05 03:51:07;;;;;;;7.80;3.87;;;;;;;;;;5071734;28;20028;-63
2023/05/05 03:53:33;;;;;;;9.17;3.50;;;;;;;;;;5069944;28;20046;-62
2023/05/05 03:55:58;;;;;;;7.13;3.47;;;;;;;;;;5074356;28;20020;-63
2023/05/05 03:58:24;;;;;;;6.50;3.20;;;;;;;;;;5070054;28;20472;-63
2023/05/05 04:00:49;;;;;;;11.47;4.40;;;;;;;;;;5071506;28;20111;-63
2023/05/05 04:03:15;;;;;;;8.63;3.10;;;;;;;;;;5072356;28;20020;-62
2023/05/05 04:05:41;;;;;;;6.13;3.63;;;;;;;;;;5073291;28;20427;-62
2023/05/05 04:08:06;;;;;;;12.07;4.03;;;;;;;;;;5073509;28;20074;-63
2023/05/05 04:10:32;;;;;;;10.60;3.90;;;;;;;;;;5072961;28;20012;-62
2023/05/05 04:12:57;;;;;;;7.63;2.80;;;;;;;;;;5073493;28;20530;-62
2023/05/05 04:15:22;;;;;;;10.43;3.23;;;;;;;;;;5070475;28;20029;-63
2023/05/05 04:17:48;;;;;;;8.17;3.13;;;;;;;;;;5072144;28;20021;-63
2023/05/05 04:20:13;;;;;;;9.67;3.33;;;;;;;;;;5073269;28;20028;-63
2023/05/05 04:22:39;;;;;;;10.73;4.23;;;;;;;;;;5073433;28;20115;-65
2023/05/05 04:25:05;;;;;;;9.27;3.87;;;;;;;;;;5069363;28;20099;-62
2023/05/05 04:27:30;;;;;;;10.40;4.33;;;;;;;;;;5072894;28;20025;-63
2023/05/05 04:29:56;;;;;;;7.57;3.67;;;;;;;;;;5071330;28;20103;-63
2023/05/05 04:32:21;;;;;;;8.77;3.83;;;;;;;;;;5071739;28;20021;-62
2023/05/05 04:34:47;;;;;;;8.37;3.23;;;;;;;;;;5069258;28;20111;-62
2023/05/05 04:37:12;;;;;;;5.83;2.93;;;;;;;;;;5073038;28;20039;-63
2023/05/05 04:39:37;;;;;;;12.73;4.93;;;;;;;;;;5072123;28;20029;-63
2023/05/05 04:42:03;;;;;;;7.83;4.17;;;;;;;;;;5072152;28;20020;-63
2023/05/05 04:44:28;;;;;;;7.13;2.80;;;;;;;;;;5070687;28;20464;-63
2023/05/05 04:46:53;;;;;;;9.33;3.57;;;;;;;;;;5068474;28;20012;-62
2023/05/05 04:49:19;;;;;;;10.77;4.87;;;;;;;;;;5071898;28;20055;-63
2023/05/05 04:51:45;;;;;;;7.53;4.10;;;;;;;;;;5069958;28;20048;-62
2023/05/05 04:54:10;;;;;;;8.20;4.10;;;;;;;;;;5071754;28;20044;-64
2023/05/05 04:56:36;;;;;;;7.93;3.40;;;;;;;;;;5071383;28;20428;-63
2023/05/05 04:59:01;;;;;;;9.87;4.27;;;;;;;;;;5071142;28;20017;-63
2023/05/05 05:01:27;;;;;;;7.27;3.43;;;;;;;;;;5067535;28;20500;-63
2023/05/05 05:03:52;;;;;;;8.37;3.97;;;;;;;;;;5072492;28;20024;-62
2023/05/05 05:06:17;;;;;;;8.70;3.50;;;;;;;;;;5071607;28;20020;-62
2023/05/05 05:08:42;;;;;;;8.23;4.63;;;;;;;;;;5072268;28;20029;-61
2023/05/05 05:11:08;;;;;;;10.70;4.67;;;;;;;;;;5068264;28;20047;-61
2023/05/05 05:13:33;;;;;;;6.13;3.33;;;;;;;;;;5072111;28;20021;-61
2023/05/05 05:15:59;;;;;;;9.33;4.30;;;;;;;;;;5068606;28;20099;-61
2023/05/05 05:18:24;;;;;;;9.00;4.30;;;;;;;;;;5070811;28;20028;-61
2023/05/05 05:20:50;;;;;;;8.47;4.23;;;;;;;;;;5071262;28;20102;-61
2023/05/05 05:23:15;;;;;;;12.23;3.67;;;;;;;;;;5071146;28;20146;-61
2023/05/05 05:25:41;;;;;;;6.27;3.43;;;;;;;;;;5073215;28;20046;-61
2023/05/05 05:28:06;;;;;;;10.73;3.77;;;;;;;;;;5067849;28;20029;-61
2023/05/05 05:30:31;;;;;;;10.20;4.40;;;;;;;;;;5069420;28;20020;-61
2023/05/05 05:32:57;;;;;;;8.33;2.93;;;;;;;;;;5071167;28;20499;-62
2023/05/05 05:35:22;;;;;;;6.97;3.03;;;;;;;;;;5070558;28;20440;-61
2023/05/05 05:37:49;;;;;;;7.03;3.60;;;;;;;;;;5069504;28;20029;-62
2023/05/05 05:40:15;;;;;;;9.10;4.90;;;;;;;;;;5072063;28;20107;-61
2023/05/05 05:42:40;;;;;;;5.97;2.80;;;;;;;;;;5068981;28;20550;-61
2023/05/05 05:45:06;;;;;;;7.93;3.90;;;;;;;;;;5069638;28;20017;-61
2023/05/05 05:47:32;;;;;;;7.70;3.10;;;;;;;;;;5069402;28;20017;-61
2023/05/05 05:49:57;;;;;;;9.07;3.93;;;;;;;;;;5067993;28;20037;-61
2023/05/05 05:52:22;;;;;;;9.37;3.50;;;;;;;;;;5066923;28;20054;-61
2023/05/05 05:54:47;;;;;;;9.93;4.50;;;;;;;;;;5065016;28;20025;-61
2023/05/05 05:57:13;;;;;;;12.93;4.07;;;;;;;;;;5071376;28;20033;-60
2023/05/05 05:59:38;;;;;;;5.97;2.70;;;;;;;;;;5072377;28;20095;-60
2023/05/05 06:02:04;;;;;;;10.67;3.97;;;;;;;;;;5072261;28;20017;-61
2023/05/05 06:04:30;;;;;;;9.20;4.20;;;;;;;;;;5072755;28;20095;-61
2023/05/05 06:06:56;;;;;;;7.93;4.40;;;;;;;;;;5071845;28;20031;-61
2023/05/05 06:09:21;;;;;;;12.07;4.70;;;;;;;;;;5072481;28;20443;-62
2023/05/05 06:11:46;;;;;;;10.02;5.03;;;;;;;;;;5072756;28;20532;-62
2023/05/05 06:14:12;;;;;;;12.73;4.45;;;;;;;;;;5072748;28;20021;-61
2023/05/05 06:16:37;;;;;;;10.70;4.60;;;;;;;;;;5072718;28;20060;-62
2023/05/05 06:19:04;;;;;;;11.60;5.27;;;;;;;;;;5072671;28;20028;-62
2023/05/05 06:21:29;;;;;;;10.50;4.40;;;;;;;;;;5072615;28;20021;-61
2023/05/05 06:23:54;;;;;;;13.30;4.90;;;;;;;;;;5072644;28;20019;-61
2023/05/05 06:26:20;;;;;;;9.03;4.60;;;;;;;;;;5072622;28;20436;-61
2023/05/05 06:28:45;;;;;;;10.13;4.20;;;;;;;;;;5075965;28;20032;-61
2023/05/05 06:31:11;;;;;;;8.93;4.53;;;;;;;;;;5076866;28;20615;-62
2023/05/05 06:33:37;;;;;;;8.93;4.57;;;;;;;;;;5076685;28;20081;-62
2023/05/05 06:36:02;;;;;;;11.93;6.40;;;;;;;;;;5076431;28;20024;-64
2023/05/05 06:38:28;;;;;;;16.07;7.83;;;;;;;;;;5076590;28;20026;-64
2023/05/05 06:40:53;;;;;;;14.23;7.20;;;;;;;;;;5076638;28;20021;-65
2023/05/05 06:43:18;;;;;;;14.20;6.50;;;;;;;;;;5076307;28;20480;-65
2023/05/05 06:45:44;;;;;;;15.90;6.73;;;;;;;;;;5076165;28;20016;-65
2023/05/05 06:48:11;;;;;;;18.47;7.90;;;;;;;;;;5076098;28;20016;-65
2023/05/05 06:50:36;;;;;;;15.07;7.80;;;;;;;;;;5075557;28;20107;-65
2023/05/05 06:53:01;;;;;;;14.40;8.23;;;;;;;;;;5076159;28;20092;-64
2023/05/05 06:55:26;;;;;;;19.40;8.90;;;;;;;;;;5076492;28;20099;-66
2023/05/05 06:57:52;;;;;;;18.27;9.00;;;;;;;;;;5075967;28;20019;-66
2023/05/05 07:00:17;;;;;;;18.37;9.03;;;;;;;;;;5075956;28;20024;-67
2023/05/05 07:02:43;;;;;;;16.60;7.87;;;;;;;;;;5075549;28;20020;-67
2023/05/05 07:05:08;;;;;;;15.97;6.83;;;;;;;;;;5075601;28;20060;-65
2023/05/05 07:07:34;;;;;;;13.73;7.57;;;;;;;;;;5076104;28;20354;-67
2023/05/05 07:09:59;;;;;;;11.00;5.57;;;;;;;;;;5075519;28;20031;-66
2023/05/05 07:12:26;;;;;;;15.67;7.57;;;;;;;;;;5072867;28;20492;-65
2023/05/05 07:14:51;;;;;;;17.70;8.70;;;;;;;;;;5075903;28;20090;-66
2023/05/05 07:17:17;;;;;;;13.40;8.27;;;;;;;;;;5075897;28;20481;-65
2023/05/05 07:19:43;;;;;;;15.60;8.17;;;;;;;;;;5074886;28;20457;-66
2023/05/05 07:22:08;;;;;;;18.40;8.47;;;;;;;;;;5075846;28;20016;-65
2023/05/05 07:24:33;;;;;;;15.73;7.43;;;;;;;;;;5075205;28;20078;-65
2023/05/05 07:26:58;;;;;;;16.80;8.17;;;;;;;;;;5075328;28;20070;-64
2023/05/05 07:29:24;;;;;;;14.90;8.10;;;;;;;;;;5075755;28;20021;-65
2023/05/05 07:31:49;;;;;;;19.43;8.10;;;;;;;;;;5075667;28;20533;-65
2023/05/05 07:34:15;;;;;;;16.90;7.40;;;;;;;;;;5075602;28;20046;-65
2023/05/05 07:36:40;;;;;;;16.77;7.90;;;;;;;;;;5075524;28;20028;-65
2023/05/05 07:39:06;;;;;;;12.43;7.00;;;;;;;;;;5057170;28;20111;-65
2023/05/05 07:41:31;;;;;;;11.83;6.97;;;;;;;;;;5075431;28;20081;-64
2023/05/05 07:43:57;;;;;;;11.47;7.03;;;;;;;;;;5075560;28;20537;-64
2023/05/05 07:46:22;;;;;;;14.47;7.40;;;;;;;;;;5075131;28;20099;-65
2023/05/05 07:48:47;;;;;;;15.33;7.67;;;;;;;;;;5074822;28;20019;-65
2023/05/05 07:51:13;;;;;;;14.40;8.07;;;;;;;;;;5075202;28;20028;-65
2023/05/05 07:53:39;;;;;;;17.80;7.70;;;;;;;;;;5074822;28;20032;-65
2023/05/05 07:56:05;;;;;;;17.57;8.90;;;;;;;;;;5075117;28;20013;-64
2023/05/05 07:58:30;;;;;;;15.07;7.50;;;;;;;;;;5075021;28;20349;-64
2023/05/05 08:00:55;;;;;;;17.63;7.83;;;;;;;;;;5075091;28;20424;-65
2023/05/05 08:03:23;;;;;;;12.27;6.90;;;;;;;;;;5075083;28;20084;-65
2023/05/05 08:05:48;;;;;;;12.47;6.40;;;;;;;;;;5074845;28;20050;-64
2023/05/05 08:08:14;;;;;;;16.03;6.97;;;;;;;;;;5074881;28;20032;-65
2023/05/05 08:10:39;;;;;;;18.17;7.87;;;;;;;;;;5074746;28;20032;-66
2023/05/05 08:13:04;;;;;;;18.40;9.00;;;;;;;;;;5074394;28;20052;-66
2023/05/05 08:15:30;;;;;;;14.77;8.50;;;;;;;;;;5074768;28;20028;-66
2023/05/05 08:17:55;;;;;;;15.33;7.10;;;;;;;;;;5074307;28;20025;-65
2023/05/05 08:20:21;;;;;;;12.17;7.03;;;;;;;;;;5074658;28;20142;-65
2023/05/05 08:22:46;;;;;;;19.93;9.17;;;;;;;;;;5074436;28;20024;-65
2023/05/05 08:25:12;;;;;;;16.00;7.53;;;;;;;;;;5074286;28;20095;-66
2023/05/05 08:27:38;;;;;;;14.60;7.60;;;;;;;;;;5074610;28;20479;-65
2023/05/05 08:30:04;;;;;;;16.20;8.07;;;;;;;;;;5074523;28;20017;-63
2023/05/05 08:32:30;;;;;;;14.60;7.83;;;;;;;;;;5074430;28;20021;-63
2023/05/05 08:34:55;;;;;;;14.20;7.57;;;;;;;;;;5074176;28;20047;-63
2023/05/05 08:37:21;;;;;;;14.53;7.60;;;;;;;;;;5074355;28;20034;-63
2023/05/05 08:39:46;;;;;;;13.47;7.13;;;;;;;;;;5073919;28;20354;-64
2023/05/05 08:42:11;;;;;;;14.60;7.30;;;;;;;;;;5074276;28;20020;-63
2023/05/05 08:44:37;;;;;;;13.13;5.67;;;;;;;;;;5073930;28;20029;-62
2023/05/05 08:47:02;;;;;;;11.70;6.40;;;;;;;;;;5073896;28;20376;-63
2023/05/05 08:49:30;;;;;;;12.40;5.60;;;;;;;;;;5074045;28;20445;-62
2023/05/05 08:51:58;;;;;;;7.47;4.47;;;;;;;;;;5073467;28;20055;-62
2023/05/05 08:54:26;;;;;;;11.02;5.20;;;;;;;;;;5073310;28;20024;-62
2023/05/05 08:56:51;;;;;;;10.18;5.05;;;;;;;;;;5078849;28;20523;-62
2023/05/05 08:59:17;;;;;;;8.52;4.90;;;;;;;;;;5073904;28;20111;-63
2023/05/05 09:01:43;;;;;;;8.95;4.70;;;;;;;;;;5073895;28;20013;-62
2023/05/05 09:04:08;;;;;;;10.25;4.78;;;;;;;;;;5073707;28;20028;-62
2023/05/05 09:06:34;;;;;;;11.88;5.13;;;;;;;;;;5073446;28;20407;-62
2023/05/05 09:09:00;;;;;;;9.68;4.60;;;;;;;;;;5073373;28;20031;-62
2023/05/05 09:11:25;;;;;;;7.95;4.38;;;;;;;;;;5073363;28;20116;-62
2023/05/05 09:13:50;;;;;;;12.68;5.25;;;;;;;;;;5073489;28;20029;-62
2023/05/05 09:16:16;;;;;;;5.55;3.30;;;;;;;;;;5073458;28;20023;-62
2023/05/05 09:18:41;;;;;;;10.23;5.05;;;;;;;;;;5089278;22;20119;-93
2023/05/05 09:21:23;;;;;;;9.43;4.63;;;;;;;;;;5038344;28;20040;-94
2023/05/05 09:24:10;;;;;;;10.65;4.18;;;;;;;;;;5037785;28;20052;-93
2023/05/05 09:26:37;;;;;;;12.55;6.30;;;;;;;;;;5041253;28;20063;-92
2023/05/05 09:29:03;;;;;;;10.10;5.13;;;;;;;;;;5039038;28;20081;-93
2023/05/05 09:31:31;;;;;;;8.45;4.53;;;;;;;;;;5037098;28;20068;-92
2023/05/05 09:33:59;;;;;;;10.10;4.70;;;;;;;;;;5036843;28;20166;-92
2023/05/05 09:36:41;;;;;;;7.22;3.90;;;;;;;;;;5037779;28;20017;-92
2023/05/05 09:39:07;;;;;;;11.10;5.15;;;;;;;;;;5038244;28;20059;-91
2023/05/05 09:41:37;;;;;;;9.45;5.28;;;;;;;;;;5038725;28;20029;-90
2023/05/05 09:44:02;;;;;;;7.68;4.22;;;;;;;;;;5037685;28;20024;-93
2023/05/05 09:46:27;;;;;;;9.25;4.35;;;;;;;;;;5037599;28;20025;-92
2023/05/05 09:48:53;;;;;;;13.80;6.15;;;;;;;;;;5038313;28;20014;-92
2023/05/05 09:51:27;;;;;;;10.35;5.05;;;;;;;;;;5038793;28;20457;-92
2023/05/05 09:53:52;;;;;;;9.40;4.70;;;;;;;;;;5037359;28;20022;-92
2023/05/05 09:56:18;;;;;;;10.15;5.70;;;;;;;;;;5054523;28;20017;-93
2023/05/05 09:58:44;;;;;;;12.88;5.30;;;;;;;;;;5057026;28;20473;-92
2023/05/05 10:01:20;;;;;;;9.93;5.90;;;;;;;;;;5062413;28;20048;-93
2023/05/05 10:03:52;;;;;;;12.00;5.50;;;;;;;;;;5063593;28;20033;-94
2023/05/05 10:06:18;;;;;;;9.48;5.30;;;;;;;;;;5062646;28;20009;-94
2023/05/05 10:08:43;;;;;;;9.65;5.55;;;;;;;;;;5064374;28;20032;-94
2023/05/05 10:11:08;;;;;;;9.60;5.05;;;;;;;;;;5064660;28;20021;-94
2023/05/05 10:13:35;;;;;;;11.73;5.68;;;;;;;;;;5065493;28;20041;-93
2023/05/05 10:16:02;;;;;;;10.15;5.57;;;;;;;;;;5068264;28;20388;-92
2023/05/05 10:18:28;;;;;;;10.38;6.30;;;;;;;;;;5066352;28;20028;-96
2023/05/05 10:21:02;;;;;;;9.27;5.25;;;;;;;;;;5064736;28;20120;-93
2023/05/05 10:23:35;;;;;;;10.63;6.13;;;;;;;;;;5063779;28;20013;-95
2023/05/05 10:26:02;;;;;;;10.82;6.13;;;;;;;;;;5062680;28;20037;-92
2023/05/05 10:28:30;;;;;;;10.70;6.25;;;;;;;;;;5042920;28;20020;-95
2023/05/05 10:30:56;;;;;;;12.23;5.85;;;;;;;;;;5048062;28;20481;-96
2023/05/05 10:33:24;;;;;;;12.13;6.22;;;;;;;;;;5066568;28;20025;-95
2023/05/05 10:35:52;;;;;;;11.40;5.60;;;;;;;;;;5048350;28;20045;-94
2023/05/05 10:38:18;;;;;;;9.93;6.00;;;;;;;;;;5044467;28;20463;-92
2023/05/05 10:40:47;;;;;;;9.13;5.95;;;;;;;;;;5061642;28;20023;-92
2023/05/05 10:43:12;;;;;;;11.70;5.90;;;;;;;;;;5046184;28;20013;-92
2023/05/05 10:45:38;;;;;;;10.63;6.30;;;;;;;;;;5062906;28;20043;-94
2023/05/05 10:48:05;;;;;;;10.48;6.75;;;;;;;;;;5063884;28;20028;-96
2023/05/05 10:50:37;;;;;;;9.30;6.35;;;;;;;;;;5062221;28;20021;-93
2023/05/05 10:53:17;;;;;;;11.88;6.18;;;;;;;;;;5061805;28;20025;-93
2023/05/05 10:56:04;;;;;;;10.67;6.40;;;;;;;;;;5063512;28;20012;-95
2023/05/05 10:58:33;;;;;;;10.23;6.07;;;;;;;;;;5049868;28;20047;-94
2023/05/05 11:01:05;;;;;;;12.27;7.22;;;;;;;;;;5070513;28;20013;-95
2023/05/05 11:03:30;;;;;;;9.20;6.00;;;;;;;;;;5071482;28;20017;-96
2023/05/05 11:06:07;;;;;;;13.23;6.78;;;;;;;;;;5051749;28;20357;-95
2023/05/05 11:08:33;;;;;;;10.30;6.55;;;;;;;;;;5057946;28;20025;-96
2023/05/05 11:10:58;;;;;;;11.38;6.70;;;;;;;;;;5071362;28;20450;-95
2023/05/05 11:13:24;;;;;;;12.07;6.90;;;;;;;;;;5069782;28;20024;-96
2023/05/05 11:16:12;;;;;;;12.10;6.78;;;;;;;;;;5068911;28;20091;-96
2023/05/05 11:18:43;;;;;;;11.45;7.10;;;;;;;;;;5055881;28;20055;-96
2023/05/05 11:21:15;;;;;;;11.70;7.30;;;;;;;;;;5071253;28;20032;-94
2023/05/05 11:23:46;;;;;;;11.45;7.15;;;;;;;;;;5073719;28;20032;-96
2023/05/05 11:26:12;;;;;;;12.98;7.95;;;;;;;;;;5078093;28;20013;-96
2023/05/05 11:28:55;;;;;;;11.32;8.05;;;;;;;;;;5090987;22;20021;-62
2023/05/05 11:31:21;;;;;;;13.27;8.25;;;;;;;;;;5034374;28;20037;-62
2023/05/05 11:33:46;;;;;;;12.75;9.05;;;;;;;;;;5035599;28;20496;-61
2023/05/05 11:36:12;;;;;;;13.07;8.38;;;;;;;;;;5035585;28;20492;-62
2023/05/05 11:38:58;;;;;;;11.27;7.93;;;;;;;;;;5035261;28;20018;-62
2023/05/05 11:41:49;;;;;;;11.82;8.25;;;;;;;;;;5034924;28;20030;-62
2023/05/05 11:44:18;;;;;;;14.48;9.35;;;;;;;;;;5026755;28;20378;-61
2023/05/05 11:47:10;;;;;;;14.65;9.30;;;;;;;;;;5035195;28;20022;-63
2023/05/05 11:49:36;;;;;;;9.80;7.60;;;;;;;;;;5026146;28;20029;-62
2023/05/05 11:52:02;;;;;;;14.35;8.93;;;;;;;;;;5035358;28;20033;-63
2023/05/05 11:54:28;;;;;;;13.57;8.63;;;;;;;;;;5035111;28;20032;-63
2023/05/05 11:57:06;;;;;;;14.00;9.05;;;;;;;;;;5035008;28;20385;-63
2023/05/05 11:59:31;;;;;;;15.52;9.45;;;;;;;;;;5034969;28;20021;-63
2023/05/05 12:01:57;;;;;;;14.27;9.45;;;;;;;;;;5035281;28;20428;-63
2023/05/05 12:04:23;;;;;;;12.48;9.10;;;;;;;;;;5034814;28;20485;-63
2023/05/05 12:06:48;;;;;;;17.05;9.98;;;;;;;;;;5034754;28;20040;-63
2023/05/05 12:09:20;;;;;;;13.57;9.80;;;;;;;;;;5035013;28;20043;-63
2023/05/05 12:11:52;;;;;;;18.20;10.32;;;;;;;;;;5034687;28;20029;-63
2023/05/05 12:14:17;;;;;;;15.13;9.93;;;;;;;;;;5034640;28;20066;-63
2023/05/05 12:16:56;;;;;;;15.50;10.80;;;;;;;;;;5034874;28;20483;-63
2023/05/05 12:19:21;;;;;;;19.73;10.30;;;;;;;;;;5034226;28;20044;-62
2023/05/05 12:21:46;;;;;;;14.38;9.73;;;;;;;;;;5034818;28;20346;-62
2023/05/05 12:24:12;;;;;;;14.25;10.32;;;;;;;;;;5034702;28;20377;-61
2023/05/05 12:26:37;;;;;;;14.07;10.15;;;;;;;;;;5033840;28;20021;-61
2023/05/05 12:29:02;;;;;;;16.63;10.68;;;;;;;;;;5034293;28;20045;-62
2023/05/05 12:31:37;;;;;;;16.00;10.50;;;;;;;;;;5034346;28;20022;-62
2023/05/05 12:34:03;;;;;;;16.30;11.32;;;;;;;;;;5033756;28;20021;-62
2023/05/05 12:36:29;;;;;;;16.05;11.70;;;;;;;;;;5032576;28;20461;-62
2023/05/05 12:38:55;;;;;;;14.13;10.75;;;;;;;;;;5032126;28;20025;-63
2023/05/05 12:41:21;;;;;;;15.15;10.80;;;;;;;;;;5032579;28;20432;-63
2023/05/05 12:43:46;;;;;;;13.90;10.25;;;;;;;;;;5024169;28;20405;-63
2023/05/05 12:46:12;;;;;;;13.30;10.38;;;;;;;;;;5019306;28;20025;-63
2023/05/05 12:48:38;;;;;;;13.85;10.50;;;;;;;;;;5025747;28;20036;-62
2023/05/05 12:51:10;;;;;;;13.90;10.05;;;;;;;;;;5028422;28;20654;-63
2023/05/05 12:53:36;;;;;;;13.18;9.63;;;;;;;;;;5031531;28;20049;-64
2023/05/05 12:56:01;;;;;;;15.70;10.80;;;;;;;;;;5030409;28;20049;-63
2023/05/05 12:58:29;;;;;;;15.05;11.30;;;;;;;;;;5031498;28;20064;-62
2023/05/05 13:01:06;;;;;;;15.02;10.75;;;;;;;;;;5029211;28;20049;-63
2023/05/05 13:03:32;;;;;;;15.77;11.35;;;;;;;;;;5030463;28;20488;-63
2023/05/05 13:05:57;;;;;;;15.45;11.40;;;;;;;;;;5035804;28;20048;-62
2023/05/05 13:08:40;;;;;;;14.63;10.70;;;;;;;;;;5031243;28;20018;-62
2023/05/05 13:11:05;;;;;;;14.93;11.55;;;;;;;;;;5031948;28;20060;-63
2023/05/05 13:13:31;;;;;;;17.25;10.98;;;;;;;;;;5032767;28;20049;-64
2023/05/05 13:15:56;;;;;;;16.38;11.20;;;;;;;;;;5032148;28;20083;-63
2023/05/05 13:18:21;;;;;;;18.23;11.07;;;;;;;;;;5030486;28;20022;-63
2023/05/05 13:20:47;;;;;;;14.13;10.93;;;;;;;;;;5032303;28;20020;-63
2023/05/05 13:23:12;;;;;;;18.70;11.07;;;;;;;;;;5032543;28;20017;-63
2023/05/05 13:25:37;;;;;;;15.35;10.88;;;;;;;;;;5031683;28;20017;-62
2023/05/05 13:28:03;;;;;;;15.95;10.93;;;;;;;;;;5032387;28;20366;-62
2023/05/05 13:30:28;;;;;;;20.63;11.85;;;;;;;;;;5021753;28;20148;-62
2023/05/05 13:32:53;;;;;;;16.80;11.00;;;;;;;;;;5031187;28;20025;-62
2023/05/05 13:35:18;;;;;;;15.77;11.27;;;;;;;;;;5032687;28;20040;-62
2023/05/05 13:37:45;;;;;;;17.88;11.70;;;;;;;;;;5033254;28;20481;-61
2023/05/05 13:40:12;;;;;;;18.10;11.80;;;;;;;;;;5032810;28;20500;-61
2023/05/05 13:42:37;;;;;;;14.57;10.52;;;;;;;;;;5032598;28;20016;-62
2023/05/05 13:45:03;;;;;;;15.20;11.60;;;;;;;;;;5033107;28;20025;-62
2023/05/05 13:47:28;;;;;;;14.60;11.63;;;;;;;;;;5032973;28;20017;-62
2023/05/05 13:49:53;;;;;;;19.02;12.00;;;;;;;;;;5033327;28;20026;-62
2023/05/05 13:52:19;;;;;;;16.35;11.88;;;;;;;;;;5032730;28;20390;-62
2023/05/05 13:54:44;;;;;;;18.55;11.50;;;;;;;;;;5032516;28;20096;-62
2023/05/05 13:57:10;;;;;;;15.70;11.13;;;;;;;;;;5028184;28;20029;-62
2023/05/05 13:59:36;;;;;;;15.82;10.90;;;;;;;;;;5031576;28;20324;-61
2023/05/05 14:02:01;;;;;;;16.25;10.52;;;;;;;;;;5032193;28;20049;-62
2023/05/05 14:04:26;;;;;;;13.25;9.18;;;;;;;;;;5031235;28;20541;-64
2023/05/05 14:06:52;;;;;;;14.95;11.50;;;;;;;;;;5031671;28;20018;-65
2023/05/05 14:09:17;;;;;;;19.67;12.57;;;;;;;;;;5023013;28;20033;-65
2023/05/05 14:11:42;;;;;;;16.42;11.48;;;;;;;;;;5030059;28;20354;-64
2023/05/05 14:14:08;;;;;;;20.02;12.73;;;;;;;;;;5029962;28;20030;-65
2023/05/05 14:16:33;;;;;;;17.83;12.00;;;;;;;;;;5029239;28;20393;-64
2023/05/05 14:18:58;;;;;;;16.45;12.23;;;;;;;;;;5030306;28;20030;-64
2023/05/05 14:21:24;;;;;;;15.27;11.07;;;;;;;;;;5029344;28;20535;-64
2023/05/05 14:23:49;;;;;;;19.95;12.85;;;;;;;;;;5027592;28;20083;-64
2023/05/05 14:26:14;;;;;;;16.35;11.68;;;;;;;;;;5029667;28;20021;-64
2023/05/05 14:28:41;;;;;;;17.73;12.93;;;;;;;;;;5029021;28;20021;-64
2023/05/05 14:31:06;;;;;;;18.80;13.65;;;;;;;;;;5027852;28;20038;-64
2023/05/05 14:33:31;;;;;;;23.15;12.48;;;;;;;;;;5029827;28;20032;-64